KFXE

Fort Lauderdale Executive Airport

Fort Lauderdale, Florida, USA
METAR KFXE 122053Z 07010KT 10SM SCT055 22/11 A3017 RMK AO2 SLP217 60000 T02170106 56014 $
Observed Flight Rules
Dec-12 @ 20:53 UTC (36 minutes ago) Visual Flight Rules
Wind Visibility Clouds
70° at 10 knots 10 miles
  • Scattered at 5,500' AGL
Temperatures Readings
Current 22°C / 72°F
Dewpoint 11°C / 52°F
Humidity 50%
Altimeter 30.17" Hg
Pressure 1021.7 hPa
Elevation 6
METAR KFXE 122053Z 07010KT 10SM SCT055 22/11 A3017 RMK AO2 SLP217 60000 T02170106 56014 $
Observed Flight Rules
Dec-12 @ 20:53 UTC
(36 minutes ago)
VFR
Wind Visibility
70° at 10 knots 10 miles
Clouds
  • Scattered at 5,500' AGL
Temperature Dewpoint
22°C / 72°F 11°C / 52°F
Humidity Altimeter Pressure
50% 30.17" Hg 1021.7 hPa